createdAt,value
2023-05-12T00:01:59.921Z,18.17
2023-05-12T00:04:27.779Z,17.70
2023-05-12T00:06:55.533Z,17.88
2023-05-12T00:09:23.285Z,17.67
2023-05-12T00:11:51.279Z,17.57
2023-05-12T00:14:21.256Z,18.04
2023-05-12T00:16:51.813Z,17.62
2023-05-12T00:19:20.255Z,17.95
2023-05-12T00:21:48.454Z,17.17
2023-05-12T00:24:16.272Z,17.65
2023-05-12T00:26:44.042Z,17.74
2023-05-12T00:29:11.820Z,17.58
2023-05-12T00:31:40.985Z,17.58
2023-05-12T00:34:08.770Z,17.86
2023-05-12T00:36:36.555Z,17.86
2023-05-12T00:39:04.672Z,17.24
2023-05-12T00:41:32.744Z,17.73
2023-05-12T00:44:00.486Z,17.44
2023-05-12T00:46:28.598Z,17.45
2023-05-12T00:48:58.361Z,17.37
2023-05-12T00:51:27.669Z,17.68
2023-05-12T00:53:56.851Z,17.59
2023-05-12T00:56:24.932Z,17.60
2023-05-12T00:58:52.782Z,17.71
2023-05-12T01:01:20.633Z,17.58
2023-05-12T01:03:48.431Z,17.57
2023-05-12T01:06:23.352Z,17.90
2023-05-12T01:08:51.358Z,17.76
2023-05-12T01:11:19.100Z,17.74
2023-05-12T01:13:47.015Z,17.45
2023-05-12T01:16:18.274Z,17.50
2023-05-12T01:18:51.401Z,17.42
2023-05-12T01:21:21.151Z,17.43
2023-05-12T01:23:58.216Z,17.78
2023-05-12T01:26:29.837Z,17.45
2023-05-12T01:28:58.928Z,17.81
2023-05-12T01:31:27.366Z,17.71
2023-05-12T01:33:55.559Z,17.52
2023-05-12T01:36:23.333Z,17.53
2023-05-12T01:38:51.167Z,17.55
2023-05-12T01:41:19.038Z,17.32
2023-05-12T01:43:48.210Z,17.38
2023-05-12T01:46:16.002Z,17.21
2023-05-12T01:48:44.085Z,17.39
2023-05-12T01:51:11.851Z,17.36
2023-05-12T01:53:39.593Z,17.55
2023-05-12T01:56:07.817Z,16.93
2023-05-12T01:58:35.601Z,17.27
2023-05-12T02:01:04.934Z,17.09
2023-05-12T02:03:32.747Z,17.07
2023-05-12T02:06:00.532Z,16.63
2023-05-12T02:08:28.267Z,16.93
2023-05-12T02:11:05.838Z,16.15
2023-05-12T02:13:33.665Z,16.70
2023-05-12T02:16:01.420Z,16.59
2023-05-12T02:18:30.555Z,16.52
2023-05-12T02:20:58.300Z,16.18
2023-05-12T02:23:26.019Z,16.18
2023-05-12T02:25:53.767Z,16.49
2023-05-12T02:28:21.538Z,16.36
2023-05-12T02:30:50.404Z,16.29
2023-05-12T02:33:19.431Z,16.22
2023-05-12T02:35:48.566Z,16.34
2023-05-12T02:38:16.324Z,16.01
2023-05-12T02:40:44.276Z,16.41
2023-05-12T02:43:12.401Z,16.14
2023-05-12T02:45:41.496Z,16.18
2023-05-12T02:48:09.312Z,16.44
2023-05-12T02:50:37.124Z,16.27
2023-05-12T02:53:06.232Z,16.07
2023-05-12T02:55:34.076Z,16.22
2023-05-12T02:58:01.868Z,15.99
2023-05-12T03:00:29.652Z,16.17
2023-05-12T03:02:57.545Z,16.14
2023-05-12T03:05:25.435Z,16.18
2023-05-12T03:07:53.290Z,16.31
2023-05-12T03:10:22.693Z,16.28
2023-05-12T03:12:50.701Z,16.43
2023-05-12T03:15:18.603Z,16.47
2023-05-12T03:17:46.368Z,16.47
2023-05-12T03:20:14.231Z,16.46
2023-05-12T03:22:42.192Z,16.10
2023-05-12T03:25:10.819Z,16.11
2023-05-12T03:27:39.984Z,16.13
2023-05-12T03:30:09.027Z,16.21
2023-05-12T03:32:39.231Z,16.31
2023-05-12T03:35:07.486Z,16.45
2023-05-12T03:37:35.280Z,16.30
2023-05-12T03:40:03.035Z,16.33
2023-05-12T03:42:30.844Z,16.33
2023-05-12T03:44:59.986Z,16.54
2023-05-12T03:47:29.212Z,16.40
2023-05-12T03:49:57.418Z,16.30
2023-05-12T03:52:25.161Z,16.46
2023-05-12T03:54:53.099Z,16.13
2023-05-12T03:57:21.058Z,15.93
2023-05-12T03:59:49.161Z,16.41
2023-05-12T04:02:18.342Z,16.36
2023-05-12T04:04:46.070Z,16.25
2023-05-12T04:07:13.743Z,16.42
2023-05-12T04:09:41.445Z,16.31
2023-05-12T04:12:09.954Z,16.18
2023-05-12T04:14:42.803Z,16.28
2023-05-12T04:17:11.337Z,16.31
2023-05-12T04:19:40.555Z,16.59
2023-05-12T04:22:08.300Z,16.73
2023-05-12T04:24:38.210Z,16.51
2023-05-12T04:27:06.733Z,16.84
2023-05-12T04:29:34.497Z,16.69
2023-05-12T04:32:02.367Z,17.10
2023-05-12T04:34:30.120Z,16.76
2023-05-12T04:36:59.238Z,16.82
2023-05-12T04:39:27.029Z,17.21
2023-05-12T04:41:54.781Z,17.09
2023-05-12T04:44:23.141Z,16.96
2023-05-12T04:46:53.483Z,16.75
2023-05-12T04:49:21.271Z,16.74
2023-05-12T04:51:49.239Z,16.29
2023-05-12T04:54:18.559Z,16.24
2023-05-12T04:56:46.349Z,16.60
2023-05-12T04:59:15.740Z,16.27
2023-05-12T05:01:44.019Z,16.85
2023-05-12T05:04:12.085Z,17.12
2023-05-12T05:06:39.907Z,16.88
2023-05-12T05:09:07.667Z,17.50
2023-05-12T05:11:36.985Z,17.14
2023-05-12T05:14:04.891Z,16.55
2023-05-12T05:16:32.828Z,17.37
2023-05-12T05:19:05.723Z,17.15
2023-05-12T05:21:34.602Z,17.50
2023-05-12T05:24:02.343Z,17.13
2023-05-12T05:26:30.049Z,17.40
2023-05-12T05:28:59.246Z,17.81
2023-05-12T05:31:28.829Z,17.75
2023-05-12T05:33:56.862Z,17.73
2023-05-12T05:36:26.213Z,17.89
2023-05-12T05:38:54.013Z,17.82
2023-05-12T05:41:22.303Z,17.00
2023-05-12T05:43:50.216Z,18.11
2023-05-12T05:46:19.343Z,18.23
2023-05-12T05:48:47.117Z,17.62
2023-05-12T05:51:15.101Z,17.94
2023-05-12T05:53:42.825Z,17.74
2023-05-12T05:56:10.574Z,18.36
2023-05-12T05:58:38.348Z,18.80
2023-05-12T06:01:06.376Z,17.88
2023-05-12T06:03:35.556Z,18.59
2023-05-12T06:06:03.525Z,17.98
2023-05-12T06:08:31.288Z,18.66
2023-05-12T06:10:59.112Z,18.10
2023-05-12T06:13:26.961Z,18.61
2023-05-12T06:15:54.874Z,18.36
2023-05-12T06:18:23.723Z,18.52
2023-05-12T06:20:53.269Z,18.43
2023-05-12T06:23:21.148Z,18.79
2023-05-12T06:25:50.540Z,19.15
2023-05-12T06:28:18.287Z,19.06
2023-05-12T06:30:46.046Z,19.38
2023-05-12T06:33:13.814Z,19.56
2023-05-12T06:35:41.584Z,20.05
2023-05-12T06:38:10.706Z,19.72
2023-05-12T06:40:38.475Z,19.55
2023-05-12T06:43:06.225Z,19.89
2023-05-12T06:45:33.978Z,20.16
2023-05-12T06:48:03.328Z,20.55
2023-05-12T06:50:31.374Z,20.43
2023-05-12T06:52:59.198Z,20.72
2023-05-12T06:55:28.354Z,20.34
2023-05-12T06:57:56.490Z,20.20
2023-05-12T07:00:24.908Z,20.68
2023-05-12T07:02:53.197Z,20.33
2023-05-12T07:05:21.796Z,20.86
2023-05-12T07:07:49.916Z,21.18
2023-05-12T07:10:17.906Z,21.00
2023-05-12T07:12:47.444Z,20.91
2023-05-12T07:15:15.178Z,20.86
2023-05-12T07:17:42.962Z,20.82
2023-05-12T07:20:10.960Z,21.58
2023-05-12T07:22:39.095Z,21.58
2023-05-12T07:25:08.018Z,21.22
2023-05-12T07:27:35.868Z,21.25
2023-05-12T07:30:05.971Z,21.54
2023-05-12T07:32:33.722Z,21.92
2023-05-12T07:35:02.049Z,21.84
2023-05-12T07:37:32.307Z,21.62
2023-05-12T07:40:00.075Z,22.03
2023-05-12T07:42:27.904Z,21.80
2023-05-12T07:44:55.706Z,22.36
2023-05-12T07:47:25.278Z,22.02
2023-05-12T07:49:53.083Z,21.93
2023-05-12T07:52:20.829Z,22.37
2023-05-12T07:54:48.585Z,22.24
2023-05-12T07:57:16.693Z,22.23
2023-05-12T07:59:44.440Z,22.29
2023-05-12T08:02:12.219Z,22.30
2023-05-12T08:04:43.170Z,22.42
2023-05-12T08:07:12.144Z,22.35
2023-05-12T08:09:39.925Z,22.61
2023-05-12T08:12:07.846Z,22.94
2023-05-12T08:14:35.706Z,22.56
2023-05-12T08:17:05.040Z,23.03
2023-05-12T08:19:32.892Z,22.44
2023-05-12T08:22:02.812Z,23.20
2023-05-12T08:24:30.598Z,23.37
2023-05-12T08:26:58.406Z,22.69
2023-05-12T08:29:26.179Z,22.95
2023-05-12T08:31:53.977Z,23.12
2023-05-12T08:34:21.813Z,23.33
2023-05-12T08:36:49.614Z,22.85
2023-05-12T08:39:18.861Z,23.35
2023-05-12T08:41:53.138Z,23.73
2023-05-12T08:44:21.993Z,23.40
2023-05-12T08:46:49.914Z,23.77
2023-05-12T08:49:21.006Z,24.00
2023-05-12T08:51:57.339Z,23.53
2023-05-12T08:54:29.133Z,23.77
2023-05-12T08:59:28.325Z,24.23
2023-05-12T09:01:56.491Z,24.25
2023-05-12T09:04:24.352Z,24.56
2023-05-12T09:06:55.547Z,24.73
2023-05-12T09:09:24.656Z,24.48
2023-05-12T09:11:58.600Z,23.98
2023-05-12T09:14:27.343Z,24.39
2023-05-12T09:16:59.768Z,24.29
2023-05-12T09:19:27.505Z,24.15
2023-05-12T09:21:57.127Z,24.78
2023-05-12T09:24:35.481Z,25.29
2023-05-12T09:27:05.707Z,24.79
2023-05-12T09:29:35.889Z,24.75
2023-05-12T09:32:10.089Z,24.99
2023-05-12T09:34:41.026Z,25.25
2023-05-12T09:37:09.404Z,25.19
2023-05-12T09:39:37.417Z,24.84
2023-05-12T09:42:12.162Z,24.92
2023-05-12T09:44:40.674Z,25.12
2023-05-12T09:47:10.278Z,25.24
2023-05-12T09:49:38.325Z,25.34
2023-05-12T09:52:06.649Z,25.72
2023-05-12T09:54:34.959Z,24.87
2023-05-12T09:57:04.976Z,25.51
2023-05-12T09:59:36.147Z,25.19
2023-05-12T10:02:07.474Z,25.82
2023-05-12T10:04:44.204Z,26.33
2023-05-12T10:07:14.508Z,26.14
2023-05-12T10:09:44.283Z,26.92
2023-05-12T10:12:12.285Z,26.68
2023-05-12T10:14:42.135Z,26.94
2023-05-12T10:17:11.042Z,27.58
2023-05-12T10:19:41.093Z,27.86
2023-05-12T10:22:11.983Z,28.10
2023-05-12T10:24:41.921Z,27.69
2023-05-12T10:27:09.690Z,28.20
2023-05-12T10:29:39.133Z,27.44
2023-05-12T10:32:08.371Z,28.70
2023-05-12T10:34:38.205Z,29.29
2023-05-12T10:37:08.385Z,28.83
2023-05-12T10:39:36.938Z,29.50
2023-05-12T10:42:08.472Z,29.61
2023-05-12T10:44:36.900Z,30.03
2023-05-12T10:47:15.347Z,29.42
2023-05-12T10:49:43.558Z,28.23
2023-05-12T10:52:12.917Z,29.16
2023-05-12T10:54:44.360Z,28.62
2023-05-12T10:57:18.892Z,29.06
2023-05-12T10:59:51.448Z,30.12
2023-05-12T11:02:27.687Z,29.66
2023-05-12T11:04:58.366Z,29.13
2023-05-12T11:07:27.858Z,29.58
2023-05-12T11:09:59.396Z,29.96
2023-05-12T11:12:32.545Z,29.43
2023-05-12T11:15:01.791Z,29.95
2023-05-12T11:17:31.167Z,29.68
2023-05-12T11:20:00.935Z,29.38
2023-05-12T11:22:28.848Z,28.93
2023-05-12T11:24:56.832Z,29.76
2023-05-12T11:27:25.062Z,29.99
2023-05-12T11:30:00.196Z,27.49
2023-05-12T11:32:29.610Z,29.87
2023-05-12T11:35:09.937Z,29.70
2023-05-12T11:37:38.780Z,29.81
2023-05-12T11:40:14.662Z,30.44
2023-05-12T11:42:46.061Z,31.21
2023-05-12T11:45:22.009Z,30.81
2023-05-12T11:47:50.279Z,29.18
2023-05-12T11:50:24.418Z,29.10
2023-05-12T11:52:52.873Z,29.27
2023-05-12T11:55:23.384Z,29.51
2023-05-12T11:58:03.288Z,29.05
2023-05-12T12:00:33.381Z,29.99
2023-05-12T12:03:12.864Z,29.53
2023-05-12T12:05:44.059Z,29.27
2023-05-12T12:08:14.397Z,30.04
2023-05-12T12:10:45.095Z,30.36
2023-05-12T12:13:12.923Z,30.83
2023-05-12T12:15:40.831Z,31.02
2023-05-12T12:18:08.670Z,28.54
2023-05-12T12:20:36.470Z,29.78
2023-05-12T12:23:06.064Z,29.65
2023-05-12T12:25:33.786Z,31.11
2023-05-12T12:28:01.531Z,29.64
2023-05-12T12:30:29.382Z,30.02
2023-05-12T12:32:57.243Z,29.91
2023-05-12T12:35:25.454Z,31.24
2023-05-12T12:37:53.207Z,30.68
2023-05-12T12:40:22.347Z,30.97
2023-05-12T12:42:50.252Z,29.63
2023-05-12T12:45:20.275Z,30.12
2023-05-12T12:47:48.529Z,31.28
2023-05-12T12:50:16.867Z,30.18
2023-05-12T12:52:44.733Z,29.98
2023-05-12T12:55:13.161Z,31.55
2023-05-12T12:57:42.770Z,30.33
2023-05-12T13:00:11.963Z,30.62
2023-05-12T13:02:39.922Z,31.26
2023-05-12T13:05:09.239Z,30.75
2023-05-12T13:07:37.223Z,30.38
2023-05-12T13:10:05.392Z,30.82
2023-05-12T13:12:33.161Z,30.75
2023-05-12T13:15:03.059Z,29.86
2023-05-12T13:17:31.045Z,30.70
2023-05-12T13:19:59.620Z,30.42
2023-05-12T13:22:28.903Z,30.94
2023-05-12T13:24:57.242Z,28.89
2023-05-12T13:27:25.032Z,30.25
2023-05-12T13:29:54.630Z,30.52
2023-05-12T13:32:23.788Z,30.31
2023-05-12T13:34:51.571Z,29.58
2023-05-12T13:37:19.307Z,30.70
2023-05-12T13:39:47.023Z,32.55
2023-05-12T13:42:15.255Z,31.25
2023-05-12T13:44:43.392Z,31.33
2023-05-12T13:47:11.101Z,30.82
2023-05-12T13:49:40.193Z,30.86
2023-05-12T13:52:08.578Z,30.85
2023-05-12T13:54:36.452Z,30.84
2023-05-12T13:57:04.584Z,31.15
2023-05-12T13:59:32.549Z,30.62
2023-05-12T14:02:02.011Z,29.44
2023-05-12T14:04:29.820Z,29.00
2023-05-12T14:06:58.990Z,29.89
2023-05-12T14:09:26.774Z,31.62
2023-05-12T14:11:54.924Z,30.89
2023-05-12T14:14:22.707Z,31.22
2023-05-12T14:16:50.507Z,30.80
2023-05-12T14:19:18.363Z,30.21
2023-05-12T14:21:46.166Z,30.15
2023-05-12T14:24:15.541Z,30.71
2023-05-12T14:26:43.235Z,30.55
2023-05-12T14:29:11.054Z,30.29
2023-05-12T14:31:38.883Z,30.81
2023-05-12T14:34:07.077Z,30.48
2023-05-12T14:36:34.805Z,30.84
2023-05-12T14:39:02.528Z,30.74
2023-05-12T14:41:31.665Z,29.36
2023-05-12T14:43:59.381Z,29.11
2023-05-12T14:46:27.164Z,29.90
2023-05-12T14:48:54.945Z,30.27
2023-05-12T14:51:22.662Z,30.25
2023-05-12T14:53:50.948Z,30.46
2023-05-12T14:56:19.159Z,29.58
2023-05-12T14:58:48.876Z,30.26
2023-05-12T15:01:16.724Z,28.77
2023-05-12T15:03:44.599Z,29.70
2023-05-12T15:06:12.795Z,28.90
2023-05-12T15:08:41.519Z,29.69
2023-05-12T15:11:09.292Z,30.09
2023-05-12T15:13:37.044Z,29.95
2023-05-12T15:16:08.203Z,30.57
2023-05-12T15:18:36.361Z,30.97
2023-05-12T15:21:04.294Z,30.41
2023-05-12T15:23:32.140Z,30.72
2023-05-12T15:26:06.992Z,30.44
2023-05-12T15:28:43.172Z,29.88
2023-05-12T15:31:12.368Z,29.29
2023-05-12T15:33:40.572Z,30.21
2023-05-12T15:36:10.978Z,29.28
2023-05-12T15:38:38.966Z,29.45
2023-05-12T15:41:06.722Z,29.02
2023-05-12T15:43:34.548Z,29.78
2023-05-12T15:46:04.560Z,29.63
2023-05-12T15:48:33.778Z,29.30
2023-05-12T15:51:03.973Z,29.32
2023-05-12T15:53:31.761Z,29.42
2023-05-12T15:56:02.803Z,29.08
2023-05-12T15:58:31.381Z,28.72
2023-05-12T16:00:59.432Z,28.30
2023-05-12T16:03:27.352Z,29.70
2023-05-12T16:05:56.765Z,28.55
2023-05-12T16:08:24.540Z,28.67
2023-05-12T16:10:52.278Z,28.52
2023-05-12T16:13:20.021Z,29.14
2023-05-12T16:15:50.297Z,28.54
2023-05-12T16:18:18.600Z,28.94
2023-05-12T16:20:47.461Z,27.74
2023-05-12T16:23:16.591Z,27.40
2023-05-12T16:25:46.266Z,26.47
2023-05-12T16:28:14.567Z,26.69
2023-05-12T16:30:42.310Z,26.61
2023-05-12T16:33:10.687Z,27.52
2023-05-12T16:35:38.706Z,26.57
2023-05-12T16:38:06.595Z,27.44
2023-05-12T16:40:35.684Z,27.10
2023-05-12T16:43:03.399Z,26.74
2023-05-12T16:45:31.545Z,26.44
2023-05-12T16:47:59.296Z,26.95
2023-05-12T16:50:27.039Z,27.11
2023-05-12T16:52:54.740Z,26.67
2023-05-12T16:55:22.916Z,25.61
2023-05-12T16:57:52.304Z,26.02
2023-05-12T17:00:20.555Z,27.05
2023-05-12T17:02:48.278Z,26.31
2023-05-12T17:05:16.044Z,25.34
2023-05-12T17:07:43.778Z,26.52
2023-05-12T17:10:11.874Z,26.18
2023-05-12T17:12:39.597Z,26.15
2023-05-12T17:15:10.456Z,25.42
2023-05-12T17:17:38.421Z,24.96
2023-05-12T17:20:07.072Z,25.39
2023-05-12T17:22:37.332Z,24.98
2023-05-12T17:25:05.775Z,25.05
2023-05-12T17:27:33.482Z,24.51
2023-05-12T17:30:03.972Z,24.30
2023-05-12T17:32:33.913Z,24.42
2023-05-12T17:35:01.644Z,23.43
2023-05-12T17:37:30.224Z,23.97
2023-05-12T17:39:58.169Z,24.07
2023-05-12T17:42:28.670Z,23.87
2023-05-12T17:44:56.382Z,23.42
2023-05-12T17:47:24.265Z,23.56
2023-05-12T17:49:53.601Z,23.74
2023-05-12T17:52:21.687Z,24.18
2023-05-12T17:54:49.468Z,23.38
2023-05-12T17:57:17.231Z,22.71
2023-05-12T17:59:51.376Z,22.81
2023-05-12T18:02:19.163Z,22.75
2023-05-12T18:04:51.212Z,23.12
2023-05-12T18:07:20.905Z,22.59
2023-05-12T18:09:48.638Z,23.15
2023-05-12T18:12:18.025Z,22.35
2023-05-12T18:14:46.613Z,22.48
2023-05-12T18:17:14.432Z,21.97
2023-05-12T18:19:42.225Z,22.20
2023-05-12T18:22:10.104Z,21.94
2023-05-12T18:24:39.208Z,21.39
2023-05-12T18:27:07.087Z,21.31
2023-05-12T18:29:34.844Z,21.41
2023-05-12T18:32:02.634Z,20.95
2023-05-12T18:34:30.766Z,20.77
2023-05-12T18:36:58.506Z,20.53
2023-05-12T18:39:26.812Z,20.87
2023-05-12T18:41:56.769Z,20.99
2023-05-12T18:44:24.520Z,20.81
2023-05-12T18:46:52.295Z,20.57
2023-05-12T18:49:20.118Z,20.79
2023-05-12T18:51:47.897Z,20.57
2023-05-12T18:54:16.018Z,20.26
2023-05-12T18:56:43.990Z,20.20
2023-05-12T18:59:13.183Z,20.36
2023-05-12T19:01:40.907Z,20.16
2023-05-12T19:04:08.682Z,19.94
2023-05-12T19:06:36.467Z,19.79
2023-05-12T19:09:05.008Z,19.75
2023-05-12T19:11:32.791Z,20.09
2023-05-12T19:14:00.531Z,19.73
2023-05-12T19:16:30.979Z,19.35
2023-05-12T19:18:59.667Z,19.26
2023-05-12T19:21:28.914Z,19.33
2023-05-12T19:23:56.971Z,19.26
2023-05-12T19:26:24.741Z,19.21
2023-05-12T19:28:52.489Z,19.28
2023-05-12T19:31:20.371Z,19.03
2023-05-12T19:33:49.564Z,18.71
2023-05-12T19:36:18.056Z,18.96
2023-05-12T19:38:45.825Z,19.17
2023-05-12T19:41:13.577Z,18.89
2023-05-12T19:43:41.276Z,18.87
2023-05-12T19:46:09.550Z,18.66
2023-05-12T19:48:37.486Z,18.80
2023-05-12T19:51:06.618Z,18.26
2023-05-12T19:53:34.409Z,18.57
2023-05-12T19:56:02.274Z,18.61
2023-05-12T19:58:29.975Z,18.04
2023-05-12T20:00:57.809Z,18.46
2023-05-12T20:03:25.734Z,18.12
2023-05-12T20:05:53.607Z,18.39
2023-05-12T20:08:22.764Z,18.45
2023-05-12T20:10:50.544Z,18.20
2023-05-12T20:13:18.273Z,18.16
2023-05-12T20:15:46.267Z,18.14
2023-05-12T20:18:15.658Z,18.29
2023-05-12T20:20:43.738Z,18.29
2023-05-12T20:23:11.481Z,18.12
2023-05-12T20:25:40.579Z,17.74
2023-05-12T20:28:09.568Z,17.89
2023-05-12T20:30:37.309Z,17.86
2023-05-12T20:33:05.374Z,18.29
2023-05-12T20:35:33.208Z,17.94
2023-05-12T20:38:01.129Z,17.99
2023-05-12T20:40:28.901Z,18.00
2023-05-12T20:42:58.005Z,17.60
2023-05-12T20:45:26.103Z,17.87
2023-05-12T20:47:53.836Z,17.88
2023-05-12T20:50:23.671Z,17.48
2023-05-12T20:52:51.456Z,17.32
2023-05-12T20:55:19.280Z,17.72
2023-05-12T20:57:47.028Z,17.59
2023-05-12T21:00:17.275Z,17.47
2023-05-12T21:02:46.318Z,17.63
2023-05-12T21:05:14.162Z,17.60
2023-05-12T21:07:41.912Z,17.32
2023-05-12T21:10:10.550Z,17.71
2023-05-12T21:12:38.613Z,17.40
2023-05-12T21:15:10.360Z,17.45
2023-05-12T21:17:40.029Z,17.14
2023-05-12T21:20:09.852Z,17.21
2023-05-12T21:22:38.418Z,17.24
2023-05-12T21:25:07.418Z,17.17
2023-05-12T21:27:35.610Z,17.08
2023-05-12T21:30:03.385Z,17.16
2023-05-12T21:32:31.602Z,17.10
2023-05-12T21:35:00.722Z,17.01
2023-05-12T21:37:28.508Z,17.30
2023-05-12T21:39:56.284Z,17.02
2023-05-12T21:42:24.056Z,17.09
2023-05-12T21:44:52.710Z,17.14
2023-05-12T21:47:20.643Z,16.85
2023-05-12T21:49:48.418Z,16.81
2023-05-12T21:52:17.522Z,16.63
2023-05-12T21:54:45.267Z,16.57
2023-05-12T21:57:12.982Z,16.91
2023-05-12T21:59:40.950Z,16.54
2023-05-12T22:02:08.732Z,16.53
2023-05-12T22:04:36.498Z,16.58
2023-05-12T22:07:04.319Z,16.65
2023-05-12T22:09:33.445Z,16.66
2023-05-12T22:12:01.195Z,16.31
2023-05-12T22:14:28.992Z,16.39
2023-05-12T22:16:56.906Z,16.65
2023-05-12T22:19:24.688Z,16.60
2023-05-12T22:21:52.919Z,16.61
2023-05-12T22:24:20.645Z,16.48
2023-05-12T22:26:49.799Z,16.83
2023-05-12T22:29:17.524Z,16.62
2023-05-12T22:31:45.290Z,16.51
2023-05-12T22:34:13.138Z,16.42
2023-05-12T22:36:40.896Z,16.77
2023-05-12T22:39:09.005Z,16.83
2023-05-12T22:41:37.290Z,16.67
2023-05-12T22:44:06.567Z,16.73
2023-05-12T22:46:34.362Z,16.54
2023-05-12T22:49:02.118Z,16.41
2023-05-12T22:51:29.860Z,16.01
2023-05-12T22:53:57.621Z,16.65
2023-05-12T22:56:25.341Z,16.37
2023-05-12T22:58:53.109Z,15.91
2023-05-12T23:01:22.282Z,15.92
2023-05-12T23:03:50.080Z,16.06
2023-05-12T23:06:17.845Z,15.83
2023-05-12T23:08:45.651Z,15.75
2023-05-12T23:11:13.402Z,15.59
2023-05-12T23:13:41.144Z,15.52
2023-05-12T23:16:09.280Z,15.39
2023-05-12T23:18:38.575Z,14.96
2023-05-12T23:21:06.394Z,14.83
2023-05-12T23:23:34.194Z,14.80
2023-05-12T23:26:01.947Z,14.55
2023-05-12T23:28:29.726Z,14.80
2023-05-12T23:30:57.481Z,15.28
2023-05-12T23:33:25.395Z,14.79
2023-05-12T23:35:54.964Z,14.97
2023-05-12T23:38:22.689Z,14.81
2023-05-12T23:40:50.422Z,14.72
2023-05-12T23:43:18.170Z,14.25
2023-05-12T23:45:46.589Z,14.17
2023-05-12T23:48:14.297Z,14.12
2023-05-12T23:50:42.088Z,13.97
2023-05-12T23:53:11.181Z,14.02
2023-05-12T23:55:38.928Z,14.28
2023-05-12T23:58:06.906Z,14.39
